sensor_id;sensor_type;location;lat;lon;timestamp;P1;durP1;ratioP1;P2;durP2;ratioP2
57441;SDS011;43284;47.042;15.498;2024-01-07T00:00:48;7.90;;;3.97;;
57441;SDS011;43284;47.042;15.498;2024-01-07T00:03:14;9.10;;;3.30;;
57441;SDS011;43284;47.042;15.498;2024-01-07T00:05:41;7.25;;;3.50;;
57441;SDS011;43284;47.042;15.498;2024-01-07T00:08:08;8.43;;;3.97;;
57441;SDS011;43284;47.042;15.498;2024-01-07T00:10:33;9.80;;;3.50;;
57441;SDS011;43284;47.042;15.498;2024-01-07T00:13:00;6.53;;;2.95;;
57441;SDS011;43284;47.042;15.498;2024-01-07T00:15:27;5.43;;;2.92;;
57441;SDS011;43284;47.042;15.498;2024-01-07T00:17:53;6.60;;;2.95;;
57441;SDS011;43284;47.042;15.498;2024-01-07T00:20:20;6.05;;;2.80;;
57441;SDS011;43284;47.042;15.498;2024-01-07T00:22:46;7.57;;;3.80;;
57441;SDS011;43284;47.042;15.498;2024-01-07T00:25:13;9.52;;;5.05;;
57441;SDS011;43284;47.042;15.498;2024-01-07T00:27:43;11.18;;;5.68;;
57441;SDS011;43284;47.042;15.498;2024-01-07T00:30:09;14.32;;;6.50;;
57441;SDS011;43284;47.042;15.498;2024-01-07T00:32:37;14.70;;;5.78;;
57441;SDS011;43284;47.042;15.498;2024-01-07T00:35:07;14.55;;;5.53;;
57441;SDS011;43284;47.042;15.498;2024-01-07T00:37:33;14.20;;;6.10;;
57441;SDS011;43284;47.042;15.498;2024-01-07T00:40:03;15.35;;;7.57;;
57441;SDS011;43284;47.042;15.498;2024-01-07T00:42:38;12.38;;;6.85;;
57441;SDS011;43284;47.042;15.498;2024-01-07T00:45:07;20.23;;;6.75;;
57441;SDS011;43284;47.042;15.498;2024-01-07T00:47:39;19.55;;;7.45;;
57441;SDS011;43284;47.042;15.498;2024-01-07T00:50:11;15.35;;;7.00;;
57441;SDS011;43284;47.042;15.498;2024-01-07T00:52:40;21.20;;;8.40;;
57441;SDS011;43284;47.042;15.498;2024-01-07T00:55:12;9.10;;;4.40;;
57441;SDS011;43284;47.042;15.498;2024-01-07T00:57:38;11.75;;;4.50;;
57441;SDS011;43284;47.042;15.498;2024-01-07T01:00:04;11.15;;;4.28;;
57441;SDS011;43284;47.042;15.498;2024-01-07T01:02:31;15.82;;;7.72;;
57441;SDS011;43284;47.042;15.498;2024-01-07T01:04:58;14.50;;;6.43;;
57441;SDS011;43284;47.042;15.498;2024-01-07T01:07:24;12.57;;;5.97;;
57441;SDS011;43284;47.042;15.498;2024-01-07T01:09:50;15.30;;;6.68;;
57441;SDS011;43284;47.042;15.498;2024-01-07T01:12:16;9.15;;;4.93;;
57441;SDS011;43284;47.042;15.498;2024-01-07T01:14:48;12.02;;;5.75;;
57441;SDS011;43284;47.042;15.498;2024-01-07T01:17:14;12.63;;;5.10;;
57441;SDS011;43284;47.042;15.498;2024-01-07T01:19:40;11.60;;;5.18;;
57441;SDS011;43284;47.042;15.498;2024-01-07T01:22:06;10.75;;;4.80;;
57441;SDS011;43284;47.042;15.498;2024-01-07T01:24:33;10.38;;;4.72;;
57441;SDS011;43284;47.042;15.498;2024-01-07T01:26:59;13.50;;;6.15;;
57441;SDS011;43284;47.042;15.498;2024-01-07T01:29:26;11.45;;;5.35;;
57441;SDS011;43284;47.042;15.498;2024-01-07T01:31:52;12.52;;;6.28;;
57441;SDS011;43284;47.042;15.498;2024-01-07T01:34:19;15.48;;;5.93;;
57441;SDS011;43284;47.042;15.498;2024-01-07T01:36:45;11.32;;;6.05;;
57441;SDS011;43284;47.042;15.498;2024-01-07T01:39:11;12.23;;;5.50;;
57441;SDS011;43284;47.042;15.498;2024-01-07T01:41:38;15.00;;;6.53;;
57441;SDS011;43284;47.042;15.498;2024-01-07T01:44:05;14.88;;;6.10;;
57441;SDS011;43284;47.042;15.498;2024-01-07T01:46:31;10.77;;;5.13;;
57441;SDS011;43284;47.042;15.498;2024-01-07T01:48:58;14.70;;;5.95;;
57441;SDS011;43284;47.042;15.498;2024-01-07T01:51:26;11.07;;;5.57;;
57441;SDS011;43284;47.042;15.498;2024-01-07T01:53:52;13.55;;;5.72;;
57441;SDS011;43284;47.042;15.498;2024-01-07T01:56:23;12.93;;;5.63;;
57441;SDS011;43284;47.042;15.498;2024-01-07T01:58:51;13.95;;;5.57;;
57441;SDS011;43284;47.042;15.498;2024-01-07T02:01:17;15.80;;;6.28;;
57441;SDS011;43284;47.042;15.498;2024-01-07T02:03:43;16.45;;;6.10;;
57441;SDS011;43284;47.042;15.498;2024-01-07T02:06:11;14.00;;;6.07;;
57441;SDS011;43284;47.042;15.498;2024-01-07T02:08:38;15.57;;;5.90;;
57441;SDS011;43284;47.042;15.498;2024-01-07T02:11:15;16.50;;;6.22;;
57441;SDS011;43284;47.042;15.498;2024-01-07T02:13:42;20.85;;;6.60;;
57441;SDS011;43284;47.042;15.498;2024-01-07T02:16:08;12.45;;;6.07;;
57441;SDS011;43284;47.042;15.498;2024-01-07T02:18:35;13.75;;;5.43;;
57441;SDS011;43284;47.042;15.498;2024-01-07T02:21:01;13.60;;;6.25;;
57441;SDS011;43284;47.042;15.498;2024-01-07T02:23:27;11.65;;;5.68;;
57441;SDS011;43284;47.042;15.498;2024-01-07T02:25:53;13.70;;;5.78;;
57441;SDS011;43284;47.042;15.498;2024-01-07T02:28:19;14.65;;;6.45;;
57441;SDS011;43284;47.042;15.498;2024-01-07T02:30:45;15.13;;;6.25;;
57441;SDS011;43284;47.042;15.498;2024-01-07T02:33:12;11.70;;;5.03;;
57441;SDS011;43284;47.042;15.498;2024-01-07T02:35:38;13.85;;;5.45;;
57441;SDS011;43284;47.042;15.498;2024-01-07T02:38:04;10.55;;;4.90;;
57441;SDS011;43284;47.042;15.498;2024-01-07T02:40:30;9.68;;;3.78;;
57441;SDS011;43284;47.042;15.498;2024-01-07T02:42:56;10.38;;;4.45;;
57441;SDS011;43284;47.042;15.498;2024-01-07T02:45:22;8.13;;;4.70;;
57441;SDS011;43284;47.042;15.498;2024-01-07T02:47:48;12.02;;;5.25;;
57441;SDS011;43284;47.042;15.498;2024-01-07T02:50:14;12.07;;;6.03;;
57441;SDS011;43284;47.042;15.498;2024-01-07T02:52:42;10.52;;;5.32;;
57441;SDS011;43284;47.042;15.498;2024-01-07T02:55:08;12.38;;;5.13;;
57441;SDS011;43284;47.042;15.498;2024-01-07T02:57:34;10.57;;;5.07;;
57441;SDS011;43284;47.042;15.498;2024-01-07T03:00:00;9.02;;;4.35;;
57441;SDS011;43284;47.042;15.498;2024-01-07T03:02:27;6.60;;;3.40;;
57441;SDS011;43284;47.042;15.498;2024-01-07T03:04:54;12.93;;;5.20;;
57441;SDS011;43284;47.042;15.498;2024-01-07T03:07:20;10.95;;;4.45;;
57441;SDS011;43284;47.042;15.498;2024-01-07T03:09:46;12.90;;;5.00;;
57441;SDS011;43284;47.042;15.498;2024-01-07T03:12:17;10.68;;;4.60;;
57441;SDS011;43284;47.042;15.498;2024-01-07T03:14:43;8.93;;;4.13;;
57441;SDS011;43284;47.042;15.498;2024-01-07T03:17:10;7.38;;;3.63;;
57441;SDS011;43284;47.042;15.498;2024-01-07T03:19:38;7.88;;;3.80;;
57441;SDS011;43284;47.042;15.498;2024-01-07T03:22:04;8.80;;;3.85;;
57441;SDS011;43284;47.042;15.498;2024-01-07T03:24:32;5.78;;;2.60;;
57441;SDS011;43284;47.042;15.498;2024-01-07T03:26:59;7.57;;;3.38;;
57441;SDS011;43284;47.042;15.498;2024-01-07T03:29:25;6.18;;;3.00;;
57441;SDS011;43284;47.042;15.498;2024-01-07T03:31:51;11.80;;;3.17;;
57441;SDS011;43284;47.042;15.498;2024-01-07T03:34:18;5.03;;;2.90;;
57441;SDS011;43284;47.042;15.498;2024-01-07T03:36:45;7.82;;;3.08;;
57441;SDS011;43284;47.042;15.498;2024-01-07T03:39:11;8.18;;;3.50;;
57441;SDS011;43284;47.042;15.498;2024-01-07T03:41:41;8.57;;;4.13;;
57441;SDS011;43284;47.042;15.498;2024-01-07T03:44:07;14.48;;;8.38;;
57441;SDS011;43284;47.042;15.498;2024-01-07T03:46:33;12.40;;;6.13;;
57441;SDS011;43284;47.042;15.498;2024-01-07T03:49:00;9.98;;;5.20;;
57441;SDS011;43284;47.042;15.498;2024-01-07T03:51:26;12.23;;;4.50;;
57441;SDS011;43284;47.042;15.498;2024-01-07T03:53:52;10.20;;;4.63;;
57441;SDS011;43284;47.042;15.498;2024-01-07T03:56:18;9.98;;;4.13;;
57441;SDS011;43284;47.042;15.498;2024-01-07T03:58:44;7.95;;;3.80;;
57441;SDS011;43284;47.042;15.498;2024-01-07T04:01:15;7.20;;;3.55;;
57441;SDS011;43284;47.042;15.498;2024-01-07T04:03:42;7.03;;;3.50;;
57441;SDS011;43284;47.042;15.498;2024-01-07T04:06:08;8.88;;;4.32;;
57441;SDS011;43284;47.042;15.498;2024-01-07T04:08:34;7.32;;;3.88;;
57441;SDS011;43284;47.042;15.498;2024-01-07T04:11:01;6.10;;;3.10;;
57441;SDS011;43284;47.042;15.498;2024-01-07T04:13:27;8.45;;;4.10;;
57441;SDS011;43284;47.042;15.498;2024-01-07T04:15:53;6.32;;;3.15;;
57441;SDS011;43284;47.042;15.498;2024-01-07T04:18:19;6.70;;;3.58;;
57441;SDS011;43284;47.042;15.498;2024-01-07T04:20:46;9.15;;;3.88;;
57441;SDS011;43284;47.042;15.498;2024-01-07T04:23:12;9.25;;;4.00;;
57441;SDS011;43284;47.042;15.498;2024-01-07T04:25:38;7.68;;;3.42;;
57441;SDS011;43284;47.042;15.498;2024-01-07T04:28:06;8.30;;;3.58;;
57441;SDS011;43284;47.042;15.498;2024-01-07T04:30:32;7.05;;;3.13;;
57441;SDS011;43284;47.042;15.498;2024-01-07T04:32:58;4.28;;;2.45;;
57441;SDS011;43284;47.042;15.498;2024-01-07T04:35:24;7.13;;;3.20;;
57441;SDS011;43284;47.042;15.498;2024-01-07T04:37:50;11.60;;;3.80;;
57441;SDS011;43284;47.042;15.498;2024-01-07T04:40:16;10.73;;;3.88;;
57441;SDS011;43284;47.042;15.498;2024-01-07T04:42:45;6.97;;;2.72;;
57441;SDS011;43284;47.042;15.498;2024-01-07T04:45:12;8.35;;;3.28;;
57441;SDS011;43284;47.042;15.498;2024-01-07T04:47:37;4.20;;;2.30;;
57441;SDS011;43284;47.042;15.498;2024-01-07T04:50:04;5.80;;;2.22;;
57441;SDS011;43284;47.042;15.498;2024-01-07T04:52:30;4.47;;;2.10;;
57441;SDS011;43284;47.042;15.498;2024-01-07T04:54:57;5.78;;;3.00;;
57441;SDS011;43284;47.042;15.498;2024-01-07T04:57:23;6.72;;;2.78;;
57441;SDS011;43284;47.042;15.498;2024-01-07T04:59:49;6.75;;;2.58;;
57441;SDS011;43284;47.042;15.498;2024-01-07T05:02:15;47.30;;;15.23;;
57441;SDS011;43284;47.042;15.498;2024-01-07T05:04:42;17.08;;;7.35;;
57441;SDS011;43284;47.042;15.498;2024-01-07T05:07:10;11.38;;;5.50;;
57441;SDS011;43284;47.042;15.498;2024-01-07T05:09:36;9.45;;;4.30;;
57441;SDS011;43284;47.042;15.498;2024-01-07T05:12:02;5.78;;;3.60;;
57441;SDS011;43284;47.042;15.498;2024-01-07T05:14:28;7.22;;;4.10;;
57441;SDS011;43284;47.042;15.498;2024-01-07T05:16:54;8.10;;;2.63;;
57441;SDS011;43284;47.042;15.498;2024-01-07T05:19:21;2.63;;;1.98;;
57441;SDS011;43284;47.042;15.498;2024-01-07T05:21:47;4.25;;;2.60;;
57441;SDS011;43284;47.042;15.498;2024-01-07T05:24:13;8.60;;;2.90;;
57441;SDS011;43284;47.042;15.498;2024-01-07T05:26:39;4.13;;;1.73;;
57441;SDS011;43284;47.042;15.498;2024-01-07T05:29:06;3.83;;;2.45;;
57441;SDS011;43284;47.042;15.498;2024-01-07T05:31:32;3.72;;;2.05;;
57441;SDS011;43284;47.042;15.498;2024-01-07T05:33:58;4.38;;;1.73;;
57441;SDS011;43284;47.042;15.498;2024-01-07T05:36:24;2.85;;;1.23;;
57441;SDS011;43284;47.042;15.498;2024-01-07T05:38:51;2.40;;;1.40;;
57441;SDS011;43284;47.042;15.498;2024-01-07T05:41:17;2.33;;;1.27;;
57441;SDS011;43284;47.042;15.498;2024-01-07T05:43:46;1.38;;;1.00;;
57441;SDS011;43284;47.042;15.498;2024-01-07T05:46:12;2.65;;;1.35;;
57441;SDS011;43284;47.042;15.498;2024-01-07T05:48:44;4.13;;;1.52;;
57441;SDS011;43284;47.042;15.498;2024-01-07T05:51:12;3.13;;;1.70;;
57441;SDS011;43284;47.042;15.498;2024-01-07T05:53:39;3.85;;;1.77;;
57441;SDS011;43284;47.042;15.498;2024-01-07T05:56:05;4.85;;;2.75;;
57441;SDS011;43284;47.042;15.498;2024-01-07T05:58:32;2.78;;;1.80;;
57441;SDS011;43284;47.042;15.498;2024-01-07T06:00:58;2.50;;;1.30;;
57441;SDS011;43284;47.042;15.498;2024-01-07T06:03:26;1.27;;;0.93;;
57441;SDS011;43284;47.042;15.498;2024-01-07T06:05:52;4.07;;;1.88;;
57441;SDS011;43284;47.042;15.498;2024-01-07T06:08:18;2.65;;;1.42;;
57441;SDS011;43284;47.042;15.498;2024-01-07T06:10:44;2.17;;;1.25;;
57441;SDS011;43284;47.042;15.498;2024-01-07T06:13:11;3.78;;;1.35;;
57441;SDS011;43284;47.042;15.498;2024-01-07T06:15:37;4.07;;;1.42;;
57441;SDS011;43284;47.042;15.498;2024-01-07T06:18:02;3.10;;;1.88;;
57441;SDS011;43284;47.042;15.498;2024-01-07T06:20:29;2.22;;;1.48;;
57441;SDS011;43284;47.042;15.498;2024-01-07T06:22:55;3.38;;;1.60;;
57441;SDS011;43284;47.042;15.498;2024-01-07T06:25:22;2.13;;;1.33;;
57441;SDS011;43284;47.042;15.498;2024-01-07T06:27:51;1.55;;;0.70;;
57441;SDS011;43284;47.042;15.498;2024-01-07T06:30:17;3.03;;;1.67;;
57441;SDS011;43284;47.042;15.498;2024-01-07T06:32:44;4.30;;;1.90;;
57441;SDS011;43284;47.042;15.498;2024-01-07T06:35:11;3.95;;;1.73;;
57441;SDS011;43284;47.042;15.498;2024-01-07T06:37:37;2.30;;;1.33;;
57441;SDS011;43284;47.042;15.498;2024-01-07T06:40:06;2.28;;;1.75;;
57441;SDS011;43284;47.042;15.498;2024-01-07T06:42:33;3.25;;;1.40;;
57441;SDS011;43284;47.042;15.498;2024-01-07T06:44:59;4.32;;;2.28;;
57441;SDS011;43284;47.042;15.498;2024-01-07T06:47:25;4.78;;;2.00;;
57441;SDS011;43284;47.042;15.498;2024-01-07T06:49:52;5.15;;;2.35;;
57441;SDS011;43284;47.042;15.498;2024-01-07T06:52:18;7.38;;;1.63;;
57441;SDS011;43284;47.042;15.498;2024-01-07T06:54:46;3.22;;;1.48;;
57441;SDS011;43284;47.042;15.498;2024-01-07T06:57:12;6.80;;;2.92;;
57441;SDS011;43284;47.042;15.498;2024-01-07T06:59:38;8.27;;;3.60;;
57441;SDS011;43284;47.042;15.498;2024-01-07T07:02:04;9.57;;;4.03;;
57441;SDS011;43284;47.042;15.498;2024-01-07T07:04:30;11.63;;;3.60;;
57441;SDS011;43284;47.042;15.498;2024-01-07T07:06:57;4.47;;;1.75;;
57441;SDS011;43284;47.042;15.498;2024-01-07T07:09:28;8.70;;;3.10;;
57441;SDS011;43284;47.042;15.498;2024-01-07T07:11:58;3.80;;;1.90;;
57441;SDS011;43284;47.042;15.498;2024-01-07T07:14:24;6.55;;;3.00;;
57441;SDS011;43284;47.042;15.498;2024-01-07T07:16:50;8.30;;;2.58;;
57441;SDS011;43284;47.042;15.498;2024-01-07T07:19:16;5.80;;;3.10;;
57441;SDS011;43284;47.042;15.498;2024-01-07T07:21:43;8.23;;;3.05;;
57441;SDS011;43284;47.042;15.498;2024-01-07T07:24:10;6.90;;;2.05;;
57441;SDS011;43284;47.042;15.498;2024-01-07T07:26:37;7.78;;;2.88;;
57441;SDS011;43284;47.042;15.498;2024-01-07T07:29:08;6.25;;;2.97;;
57441;SDS011;43284;47.042;15.498;2024-01-07T07:31:37;7.40;;;3.33;;
57441;SDS011;43284;47.042;15.498;2024-01-07T07:34:03;8.13;;;3.25;;
57441;SDS011;43284;47.042;15.498;2024-01-07T07:36:29;11.73;;;2.50;;
57441;SDS011;43284;47.042;15.498;2024-01-07T07:38:55;5.03;;;2.38;;
57441;SDS011;43284;47.042;15.498;2024-01-07T07:41:22;17.95;;;7.05;;
57441;SDS011;43284;47.042;15.498;2024-01-07T07:43:47;24.88;;;8.95;;
57441;SDS011;43284;47.042;15.498;2024-01-07T07:46:15;50.47;;;14.07;;
57441;SDS011;43284;47.042;15.498;2024-01-07T07:48:44;30.38;;;10.40;;
57441;SDS011;43284;47.042;15.498;2024-01-07T07:51:09;20.02;;;5.47;;
57441;SDS011;43284;47.042;15.498;2024-01-07T07:53:37;11.65;;;3.40;;
57441;SDS011;43284;47.042;15.498;2024-01-07T07:56:05;31.48;;;10.10;;
57441;SDS011;43284;47.042;15.498;2024-01-07T07:58:32;14.82;;;6.10;;
57441;SDS011;43284;47.042;15.498;2024-01-07T08:00:58;12.52;;;6.07;;
57441;SDS011;43284;47.042;15.498;2024-01-07T08:03:24;22.13;;;9.13;;
57441;SDS011;43284;47.042;15.498;2024-01-07T08:05:50;13.90;;;6.80;;
57441;SDS011;43284;47.042;15.498;2024-01-07T08:08:17;8.10;;;3.78;;
57441;SDS011;43284;47.042;15.498;2024-01-07T08:10:46;7.97;;;3.42;;
57441;SDS011;43284;47.042;15.498;2024-01-07T08:13:13;8.45;;;2.80;;
57441;SDS011;43284;47.042;15.498;2024-01-07T08:15:39;10.90;;;2.17;;
57441;SDS011;43284;47.042;15.498;2024-01-07T08:18:05;9.75;;;3.50;;
57441;SDS011;43284;47.042;15.498;2024-01-07T08:20:31;15.95;;;6.53;;
57441;SDS011;43284;47.042;15.498;2024-01-07T08:22:57;20.38;;;6.85;;
57441;SDS011;43284;47.042;15.498;2024-01-07T08:25:23;13.82;;;6.30;;
57441;SDS011;43284;47.042;15.498;2024-01-07T08:27:49;11.82;;;4.78;;
57441;SDS011;43284;47.042;15.498;2024-01-07T08:30:15;8.00;;;3.22;;
57441;SDS011;43284;47.042;15.498;2024-01-07T08:32:41;2.53;;;1.70;;
57441;SDS011;43284;47.042;15.498;2024-01-07T08:35:07;2.58;;;1.58;;
57441;SDS011;43284;47.042;15.498;2024-01-07T08:37:34;3.00;;;1.75;;
57441;SDS011;43284;47.042;15.498;2024-01-07T08:40:00;6.70;;;2.38;;
57441;SDS011;43284;47.042;15.498;2024-01-07T08:42:26;5.43;;;2.17;;
57441;SDS011;43284;47.042;15.498;2024-01-07T08:44:55;4.97;;;1.80;;
57441;SDS011;43284;47.042;15.498;2024-01-07T08:47:20;3.92;;;1.92;;
57441;SDS011;43284;47.042;15.498;2024-01-07T08:49:46;6.70;;;2.10;;
57441;SDS011;43284;47.042;15.498;2024-01-07T08:52:11;4.88;;;1.50;;
57441;SDS011;43284;47.042;15.498;2024-01-07T08:54:37;3.47;;;1.85;;
57441;SDS011;43284;47.042;15.498;2024-01-07T08:57:02;8.27;;;2.63;;
57441;SDS011;43284;47.042;15.498;2024-01-07T08:59:28;6.47;;;2.10;;
57441;SDS011;43284;47.042;15.498;2024-01-07T09:01:53;12.05;;;3.45;;
57441;SDS011;43284;47.042;15.498;2024-01-07T09:04:19;10.43;;;3.60;;
57441;SDS011;43284;47.042;15.498;2024-01-07T09:06:44;7.65;;;1.88;;
57441;SDS011;43284;47.042;15.498;2024-01-07T09:09:10;6.97;;;2.22;;
57441;SDS011;43284;47.042;15.498;2024-01-07T09:11:36;4.45;;;1.75;;
57441;SDS011;43284;47.042;15.498;2024-01-07T09:14:01;3.85;;;1.60;;
57441;SDS011;43284;47.042;15.498;2024-01-07T09:16:28;5.93;;;2.08;;
57441;SDS011;43284;47.042;15.498;2024-01-07T09:18:53;2.88;;;1.63;;
57441;SDS011;43284;47.042;15.498;2024-01-07T09:21:19;4.43;;;1.63;;
57441;SDS011;43284;47.042;15.498;2024-01-07T09:23:44;2.55;;;1.25;;
57441;SDS011;43284;47.042;15.498;2024-01-07T09:26:10;1.85;;;1.10;;
57441;SDS011;43284;47.042;15.498;2024-01-07T09:28:36;1.15;;;1.05;;
57441;SDS011;43284;47.042;15.498;2024-01-07T09:31:01;2.70;;;1.50;;
57441;SDS011;43284;47.042;15.498;2024-01-07T09:33:28;1.75;;;1.17;;
57441;SDS011;43284;47.042;15.498;2024-01-07T09:35:53;5.10;;;1.98;;
57441;SDS011;43284;47.042;15.498;2024-01-07T09:38:22;3.88;;;1.40;;
57441;SDS011;43284;47.042;15.498;2024-01-07T09:40:52;1.92;;;1.13;;
57441;SDS011;43284;47.042;15.498;2024-01-07T09:43:20;2.80;;;1.50;;
57441;SDS011;43284;47.042;15.498;2024-01-07T09:45:46;3.33;;;1.85;;
57441;SDS011;43284;47.042;15.498;2024-01-07T09:48:15;2.88;;;1.55;;
57441;SDS011;43284;47.042;15.498;2024-01-07T09:50:41;4.13;;;1.67;;
57441;SDS011;43284;47.042;15.498;2024-01-07T09:53:07;5.32;;;1.75;;
57441;SDS011;43284;47.042;15.498;2024-01-07T09:55:40;3.33;;;1.70;;
57441;SDS011;43284;47.042;15.498;2024-01-07T09:58:17;9.95;;;2.78;;
57441;SDS011;43284;47.042;15.498;2024-01-07T10:00:43;13.15;;;3.13;;
57441;SDS011;43284;47.042;15.498;2024-01-07T10:03:08;5.80;;;2.50;;
57441;SDS011;43284;47.042;15.498;2024-01-07T10:05:34;10.40;;;4.22;;
57441;SDS011;43284;47.042;15.498;2024-01-07T10:08:00;4.88;;;2.25;;
57441;SDS011;43284;47.042;15.498;2024-01-07T10:10:26;3.45;;;1.80;;
57441;SDS011;43284;47.042;15.498;2024-01-07T10:12:51;2.40;;;1.05;;
57441;SDS011;43284;47.042;15.498;2024-01-07T10:15:18;2.58;;;1.48;;
57441;SDS011;43284;47.042;15.498;2024-01-07T10:17:44;2.55;;;1.40;;
57441;SDS011;43284;47.042;15.498;2024-01-07T10:20:10;5.15;;;1.70;;
57441;SDS011;43284;47.042;15.498;2024-01-07T10:22:37;6.03;;;2.88;;
57441;SDS011;43284;47.042;15.498;2024-01-07T10:25:05;3.58;;;2.33;;
57441;SDS011;43284;47.042;15.498;2024-01-07T10:27:37;6.78;;;2.75;;
57441;SDS011;43284;47.042;15.498;2024-01-07T10:30:03;4.05;;;2.17;;
57441;SDS011;43284;47.042;15.498;2024-01-07T10:32:29;5.95;;;1.90;;
57441;SDS011;43284;47.042;15.498;2024-01-07T10:34:56;1.98;;;1.13;;
57441;SDS011;43284;47.042;15.498;2024-01-07T10:37:27;6.32;;;2.55;;
57441;SDS011;43284;47.042;15.498;2024-01-07T10:39:54;6.10;;;2.58;;
57441;SDS011;43284;47.042;15.498;2024-01-07T10:42:31;4.30;;;2.00;;
57441;SDS011;43284;47.042;15.498;2024-01-07T10:44:57;3.50;;;1.88;;
57441;SDS011;43284;47.042;15.498;2024-01-07T10:47:23;4.50;;;2.22;;
57441;SDS011;43284;47.042;15.498;2024-01-07T10:49:54;5.13;;;1.90;;
57441;SDS011;43284;47.042;15.498;2024-01-07T10:52:22;3.05;;;1.95;;
57441;SDS011;43284;47.042;15.498;2024-01-07T10:54:49;3.08;;;1.85;;
57441;SDS011;43284;47.042;15.498;2024-01-07T11:00:08;4.75;;;2.63;;
57441;SDS011;43284;47.042;15.498;2024-01-07T11:02:44;9.25;;;3.40;;
57441;SDS011;43284;47.042;15.498;2024-01-07T11:10:39;2.50;;;1.52;;
57441;SDS011;43284;47.042;15.498;2024-01-07T11:13:10;4.22;;;1.92;;
57441;SDS011;43284;47.042;15.498;2024-01-07T11:16:04;3.78;;;1.85;;
57441;SDS011;43284;47.042;15.498;2024-01-07T11:18:33;5.35;;;2.20;;
57441;SDS011;43284;47.042;15.498;2024-01-07T11:20:59;6.40;;;2.53;;
57441;SDS011;43284;47.042;15.498;2024-01-07T11:23:32;4.88;;;2.90;;
57441;SDS011;43284;47.042;15.498;2024-01-07T11:26:02;7.78;;;3.17;;
57441;SDS011;43284;47.042;15.498;2024-01-07T11:31:13;3.55;;;2.17;;
57441;SDS011;43284;47.042;15.498;2024-01-07T11:33:49;3.45;;;2.08;;
57441;SDS011;43284;47.042;15.498;2024-01-07T11:36:16;2.65;;;1.63;;
57441;SDS011;43284;47.042;15.498;2024-01-07T11:38:43;11.68;;;3.20;;
57441;SDS011;43284;47.042;15.498;2024-01-07T11:41:14;4.82;;;2.65;;
57441;SDS011;43284;47.042;15.498;2024-01-07T11:43:53;4.97;;;2.92;;
57441;SDS011;43284;47.042;15.498;2024-01-07T11:46:20;4.20;;;2.05;;
57441;SDS011;43284;47.042;15.498;2024-01-07T11:48:46;3.95;;;2.30;;
57441;SDS011;43284;47.042;15.498;2024-01-07T11:51:12;2.05;;;1.52;;
57441;SDS011;43284;47.042;15.498;2024-01-07T11:53:37;8.10;;;2.67;;
57441;SDS011;43284;47.042;15.498;2024-01-07T11:56:03;4.78;;;2.22;;
57441;SDS011;43284;47.042;15.498;2024-01-07T11:58:30;4.03;;;2.58;;
57441;SDS011;43284;47.042;15.498;2024-01-07T12:00:55;4.15;;;2.67;;
57441;SDS011;43284;47.042;15.498;2024-01-07T12:03:21;3.88;;;2.55;;
57441;SDS011;43284;47.042;15.498;2024-01-07T12:05:48;4.20;;;2.47;;
57441;SDS011;43284;47.042;15.498;2024-01-07T12:08:14;5.47;;;2.40;;
57441;SDS011;43284;47.042;15.498;2024-01-07T12:10:40;2.67;;;1.70;;
57441;SDS011;43284;47.042;15.498;2024-01-07T12:13:05;3.60;;;1.73;;
57441;SDS011;43284;47.042;15.498;2024-01-07T12:15:33;2.78;;;1.58;;
57441;SDS011;43284;47.042;15.498;2024-01-07T12:17:59;4.50;;;1.85;;
57441;SDS011;43284;47.042;15.498;2024-01-07T12:20:26;4.07;;;2.25;;
57441;SDS011;43284;47.042;15.498;2024-01-07T12:22:56;4.32;;;1.80;;
57441;SDS011;43284;47.042;15.498;2024-01-07T12:25:22;2.25;;;1.52;;
57441;SDS011;43284;47.042;15.498;2024-01-07T12:27:51;5.57;;;2.20;;
57441;SDS011;43284;47.042;15.498;2024-01-07T12:30:20;3.30;;;2.05;;
57441;SDS011;43284;47.042;15.498;2024-01-07T12:32:46;3.58;;;2.47;;
57441;SDS011;43284;47.042;15.498;2024-01-07T12:35:11;3.47;;;2.53;;
57441;SDS011;43284;47.042;15.498;2024-01-07T12:37:37;5.18;;;2.40;;
57441;SDS011;43284;47.042;15.498;2024-01-07T12:40:03;3.40;;;2.28;;
57441;SDS011;43284;47.042;15.498;2024-01-07T12:42:29;8.05;;;2.70;;
57441;SDS011;43284;47.042;15.498;2024-01-07T12:44:55;4.57;;;3.08;;
57441;SDS011;43284;47.042;15.498;2024-01-07T12:47:21;7.50;;;2.70;;
57441;SDS011;43284;47.042;15.498;2024-01-07T12:49:46;6.97;;;2.60;;
57441;SDS011;43284;47.042;15.498;2024-01-07T12:52:12;4.63;;;2.83;;
57441;SDS011;43284;47.042;15.498;2024-01-07T12:54:40;4.72;;;2.40;;
57441;SDS011;43284;47.042;15.498;2024-01-07T12:57:06;3.53;;;2.42;;
57441;SDS011;43284;47.042;15.498;2024-01-07T12:59:31;4.78;;;2.78;;
57441;SDS011;43284;47.042;15.498;2024-01-07T13:01:57;11.95;;;4.38;;
57441;SDS011;43284;47.042;15.498;2024-01-07T13:04:22;6.43;;;3.30;;
57441;SDS011;43284;47.042;15.498;2024-01-07T13:06:48;7.32;;;3.15;;
57441;SDS011;43284;47.042;15.498;2024-01-07T13:09:14;2.97;;;2.25;;
57441;SDS011;43284;47.042;15.498;2024-01-07T13:11:39;4.55;;;2.10;;
57441;SDS011;43284;47.042;15.498;2024-01-07T13:14:05;3.40;;;2.42;;
57441;SDS011;43284;47.042;15.498;2024-01-07T13:16:30;4.95;;;2.75;;
57441;SDS011;43284;47.042;15.498;2024-01-07T13:18:56;6.50;;;3.70;;
57441;SDS011;43284;47.042;15.498;2024-01-07T13:21:22;13.27;;;6.38;;
57441;SDS011;43284;47.042;15.498;2024-01-07T13:23:48;12.10;;;6.13;;
57441;SDS011;43284;47.042;15.498;2024-01-07T13:26:19;9.85;;;5.28;;
57441;SDS011;43284;47.042;15.498;2024-01-07T13:28:45;13.93;;;7.03;;
57441;SDS011;43284;47.042;15.498;2024-01-07T13:31:11;9.82;;;4.88;;
57441;SDS011;43284;47.042;15.498;2024-01-07T13:33:38;7.10;;;3.88;;
57441;SDS011;43284;47.042;15.498;2024-01-07T13:36:04;6.13;;;3.55;;
57441;SDS011;43284;47.042;15.498;2024-01-07T13:38:34;6.13;;;3.50;;
57441;SDS011;43284;47.042;15.498;2024-01-07T13:40:59;9.13;;;5.30;;
57441;SDS011;43284;47.042;15.498;2024-01-07T13:43:25;6.50;;;3.55;;
57441;SDS011;43284;47.042;15.498;2024-01-07T13:45:54;5.40;;;3.47;;
57441;SDS011;43284;47.042;15.498;2024-01-07T13:48:20;9.82;;;5.82;;
57441;SDS011;43284;47.042;15.498;2024-01-07T13:50:45;9.20;;;6.20;;
57441;SDS011;43284;47.042;15.498;2024-01-07T13:53:12;13.10;;;6.72;;
57441;SDS011;43284;47.042;15.498;2024-01-07T13:55:39;8.52;;;5.25;;
57441;SDS011;43284;47.042;15.498;2024-01-07T13:58:05;7.25;;;4.50;;
57441;SDS011;43284;47.042;15.498;2024-01-07T14:00:33;6.05;;;4.32;;
57441;SDS011;43284;47.042;15.498;2024-01-07T14:02:59;7.75;;;4.93;;
57441;SDS011;43284;47.042;15.498;2024-01-07T14:05:25;7.00;;;3.80;;
57441;SDS011;43284;47.042;15.498;2024-01-07T14:07:50;5.18;;;4.18;;
57441;SDS011;43284;47.042;15.498;2024-01-07T14:10:16;5.53;;;3.75;;
57441;SDS011;43284;47.042;15.498;2024-01-07T14:12:43;6.90;;;3.22;;
57441;SDS011;43284;47.042;15.498;2024-01-07T14:15:09;9.18;;;5.32;;
57441;SDS011;43284;47.042;15.498;2024-01-07T14:17:34;7.95;;;5.75;;
57441;SDS011;43284;47.042;15.498;2024-01-07T14:20:00;5.25;;;3.40;;
57441;SDS011;43284;47.042;15.498;2024-01-07T14:22:26;6.03;;;3.42;;
57441;SDS011;43284;47.042;15.498;2024-01-07T14:24:51;6.60;;;3.15;;
57441;SDS011;43284;47.042;15.498;2024-01-07T14:27:17;7.40;;;3.30;;
57441;SDS011;43284;47.042;15.498;2024-01-07T14:29:43;3.67;;;2.70;;
57441;SDS011;43284;47.042;15.498;2024-01-07T14:32:09;5.85;;;3.60;;
57441;SDS011;43284;47.042;15.498;2024-01-07T14:34:37;6.60;;;3.38;;
57441;SDS011;43284;47.042;15.498;2024-01-07T14:37:08;7.18;;;3.42;;
57441;SDS011;43284;47.042;15.498;2024-01-07T14:39:37;7.65;;;4.10;;